createdAt,value
2022-12-08T00:00:52.364Z,28.1
2022-12-08T00:05:52.345Z,28.1
2022-12-08T00:10:52.401Z,28.1
2022-12-08T00:15:52.343Z,30.1
2022-12-08T00:20:52.353Z,30.1
2022-12-08T00:25:52.401Z,28
2022-12-08T00:30:52.323Z,28
2022-12-08T00:35:52.355Z,28
2022-12-08T00:40:52.366Z,27.7
2022-12-08T00:45:52.407Z,27.7
2022-12-08T00:50:52.397Z,27.5
2022-12-08T00:55:52.413Z,25.7
2022-12-08T01:00:52.639Z,25.7
2022-12-08T01:05:52.357Z,25.6
2022-12-08T01:10:52.382Z,25.6
2022-12-08T01:20:52.939Z,25.5
2022-12-08T01:25:52.488Z,25.6
2022-12-08T01:30:52.424Z,25.6
2022-12-08T01:35:52.375Z,23.8
2022-12-08T01:40:52.412Z,23
2022-12-08T01:45:52.571Z,22.2
2022-12-08T01:50:52.426Z,21.6
2022-12-08T01:55:52.501Z,21.9
2022-12-08T02:00:52.457Z,21.6
2022-12-08T02:05:52.390Z,20.4
2022-12-08T02:10:52.408Z,19.9
2022-12-08T02:15:52.470Z,18.9
2022-12-08T02:20:52.452Z,18.9
2022-12-08T02:25:52.403Z,18.3
2022-12-08T02:30:52.860Z,18
2022-12-08T02:35:52.492Z,16.2
2022-12-08T02:40:52.488Z,16.2
2022-12-08T02:45:52.581Z,15.7
2022-12-08T02:50:52.457Z,15.7
2022-12-08T02:55:52.537Z,15.7
2022-12-08T03:00:52.409Z,16.2
2022-12-08T03:05:52.442Z,16.7
2022-12-08T03:10:52.460Z,17
2022-12-08T03:15:52.423Z,17.1
2022-12-08T03:20:52.415Z,17.1
2022-12-08T03:25:52.422Z,17.1
2022-12-08T03:30:52.528Z,17.2
2022-12-08T03:35:52.448Z,17.2
2022-12-08T03:40:52.401Z,17.8
2022-12-08T03:45:52.384Z,18.2
2022-12-08T03:50:52.420Z,18.2
2022-12-08T03:55:52.491Z,20.9
2022-12-08T04:00:52.390Z,21.3
2022-12-08T04:05:52.543Z,23
2022-12-08T04:10:52.427Z,24
2022-12-08T04:15:52.488Z,24.2
2022-12-08T04:20:52.514Z,26.2
2022-12-08T04:35:52.534Z,28.8
2022-12-08T04:40:52.461Z,30.05
2022-12-08T04:45:52.406Z,31.3
2022-12-08T04:50:52.492Z,32.85
2022-12-08T04:55:52.391Z,32
2022-12-08T05:00:52.438Z,31.65
2022-12-08T05:05:52.511Z,31.3
2022-12-08T05:10:52.642Z,31.3
2022-12-08T05:15:52.556Z,30.8
2022-12-08T05:20:52.407Z,30.8
2022-12-08T05:25:52.416Z,30.8
2022-12-08T05:30:52.395Z,30.8
2022-12-08T05:35:52.516Z,30.8
2022-12-08T05:40:52.500Z,30.8
2022-12-08T05:45:52.476Z,30.8
2022-12-08T05:50:52.473Z,30.1
2022-12-08T05:55:52.563Z,30
2022-12-08T06:00:52.489Z,30
2022-12-08T06:05:52.550Z,29.9
2022-12-08T06:10:52.468Z,30
2022-12-08T06:15:52.423Z,30.1
2022-12-08T06:20:52.449Z,30.4
2022-12-08T06:25:52.401Z,31.9
2022-12-08T06:30:52.448Z,31.9
2022-12-08T06:35:52.543Z,31.9
2022-12-08T06:40:52.416Z,31.9
2022-12-08T06:45:52.473Z,31.9
2022-12-08T06:50:52.466Z,31.6
2022-12-08T06:55:59.737Z,32.1
2022-12-08T07:00:52.501Z,31.6
2022-12-08T07:05:52.437Z,32.1
2022-12-08T07:10:52.428Z,31.6
2022-12-08T07:15:52.442Z,32.1
2022-12-08T07:20:52.417Z,32.2
2022-12-08T07:25:52.570Z,32.3
2022-12-08T07:30:52.447Z,32.4
2022-12-08T07:35:52.529Z,32.4
2022-12-08T07:40:52.518Z,32.4
2022-12-08T07:45:52.448Z,33.1
2022-12-08T07:50:52.444Z,33.1
2022-12-08T07:55:52.488Z,33.1
2022-12-08T08:00:52.498Z,33.8
2022-12-08T08:05:52.472Z,33.8
2022-12-08T08:10:52.509Z,33.8
2022-12-08T08:15:52.655Z,33.1
2022-12-08T08:20:52.444Z,30.7
2022-12-08T08:25:52.554Z,30.5
2022-12-08T08:30:52.642Z,29.7
2022-12-08T08:35:52.531Z,29.7
2022-12-08T08:40:52.438Z,29.1
2022-12-08T08:45:52.532Z,29
2022-12-08T08:50:52.469Z,28.4
2022-12-08T08:55:52.506Z,26.4
2022-12-08T09:00:52.502Z,26.4
2022-12-08T09:05:52.599Z,26.2
2022-12-08T09:10:52.555Z,26.1
2022-12-08T09:15:52.634Z,26.1
2022-12-08T09:20:52.522Z,26.1
2022-12-08T09:25:52.573Z,25.4
2022-12-08T09:30:52.569Z,25.2
2022-12-08T09:35:52.647Z,25.2
2022-12-08T09:40:52.536Z,25.4
2022-12-08T09:45:52.483Z,25.4
2022-12-08T09:50:52.557Z,26.1
2022-12-08T09:55:52.511Z,25.4
2022-12-08T10:00:52.610Z,23.1
2022-12-08T10:05:52.503Z,22.8
2022-12-08T10:10:52.477Z,22.5
2022-12-08T10:15:52.500Z,22.5
2022-12-08T10:20:52.473Z,22.5
2022-12-08T10:25:52.469Z,22.1
2022-12-08T10:30:52.476Z,20.5
2022-12-08T10:35:52.605Z,19
2022-12-08T10:40:52.684Z,17.6
2022-12-08T10:45:52.491Z,16.9
2022-12-08T10:50:52.475Z,15.6
2022-12-08T10:55:52.520Z,15.5
2022-12-08T11:00:52.635Z,15.2
2022-12-08T11:05:52.829Z,14.2
2022-12-08T11:10:52.601Z,12.4
2022-12-08T11:15:52.518Z,11.4
2022-12-08T11:20:52.495Z,11.1
2022-12-08T11:25:52.557Z,10.6
2022-12-08T11:30:52.538Z,10.6
2022-12-08T11:35:52.654Z,10.2
2022-12-08T11:40:52.553Z,10.2
2022-12-08T11:45:52.565Z,10.1
2022-12-08T11:50:52.492Z,9.9
2022-12-08T11:55:52.509Z,9.9
2022-12-08T12:00:52.521Z,9.9
2022-12-08T12:06:13.484Z,9.9
2022-12-08T12:10:52.517Z,9.7
2022-12-08T12:15:52.507Z,9.7
2022-12-08T12:20:52.696Z,9.7
2022-12-08T12:25:52.500Z,9.7
2022-12-08T12:30:52.599Z,9
2022-12-08T12:35:52.611Z,9
2022-12-08T12:40:52.542Z,9
2022-12-08T12:45:52.576Z,9
2022-12-08T12:50:52.507Z,9
2022-12-08T12:55:52.507Z,9
2022-12-08T13:00:52.504Z,9.7
2022-12-08T13:05:52.497Z,10.1
2022-12-08T13:10:52.679Z,10.1
2022-12-08T13:15:52.530Z,10.1
2022-12-08T13:20:52.547Z,10.1
2022-12-08T13:25:52.673Z,10
2022-12-08T13:30:52.599Z,9.7
2022-12-08T13:35:52.562Z,10
2022-12-08T13:40:52.940Z,9.3
2022-12-08T13:52:37.262Z,9.3
2022-12-08T13:56:43.637Z,9
2022-12-08T14:00:52.528Z,9
2022-12-08T14:06:12.530Z,8.8
2022-12-08T14:16:25.355Z,8.3
2022-12-08T14:25:52.602Z,9.2
2022-12-08T14:30:52.585Z,8.7
2022-12-08T14:35:52.514Z,8.2
2022-12-08T14:40:52.777Z,8.35
2022-12-08T14:45:52.526Z,8.5
2022-12-08T14:50:52.546Z,8.35
2022-12-08T14:55:52.601Z,8.5
2022-12-08T15:00:52.545Z,8.5
2022-12-08T15:05:52.535Z,8.7
2022-12-08T15:10:52.614Z,9.4
2022-12-08T15:15:52.616Z,9.9
2022-12-08T15:20:52.602Z,10
2022-12-08T15:25:52.752Z,10
2022-12-08T15:30:52.617Z,10
2022-12-08T15:35:52.560Z,10
2022-12-08T15:40:52.691Z,10
2022-12-08T15:45:59.315Z,10.8
2022-12-08T15:50:52.540Z,10.8
2022-12-08T16:00:56.173Z,16.8
2022-12-08T16:06:31.317Z,17.3
2022-12-08T16:11:41.060Z,18.1
2022-12-08T16:16:00.172Z,19
2022-12-08T16:21:09.500Z,28.1
2022-12-08T16:26:17.577Z,31.7
2022-12-08T16:30:52.748Z,31.8
2022-12-08T16:35:52.589Z,34.8
2022-12-08T16:40:52.653Z,34.8
2022-12-08T16:45:52.785Z,31.8
2022-12-08T16:50:52.594Z,31.8
2022-12-08T16:55:52.700Z,31.7
2022-12-08T17:00:52.628Z,29.6
2022-12-08T17:05:52.753Z,29.5
2022-12-08T17:20:52.731Z,34.1
2022-12-08T17:25:52.679Z,26.6
2022-12-08T17:30:52.582Z,19.2
2022-12-08T17:35:52.602Z,22.5
2022-12-08T17:50:52.649Z,44
2022-12-08T17:55:52.659Z,37.9
2022-12-08T18:00:52.604Z,31.8
2022-12-08T18:05:52.595Z,37.9
2022-12-08T18:10:52.604Z,44
2022-12-08T18:15:52.618Z,38.45
2022-12-08T18:20:52.656Z,32.9
2022-12-08T18:25:52.598Z,31.8
2022-12-08T18:30:52.609Z,28.6
2022-12-08T18:35:52.704Z,27
2022-12-08T18:40:52.592Z,24.1
2022-12-08T18:46:13.532Z,23.1
2022-12-08T18:50:52.567Z,23.1
2022-12-08T18:55:52.662Z,23.1
2022-12-08T19:00:52.577Z,23.1
2022-12-08T19:05:52.571Z,31.1
2022-12-08T19:10:52.568Z,31.1
2022-12-08T19:15:52.644Z,31.1
2022-12-08T19:20:52.557Z,31.1
2022-12-08T19:25:52.598Z,23.2
2022-12-08T19:30:52.663Z,23.2
2022-12-08T19:35:53.727Z,23.2
2022-12-08T19:40:52.697Z,23.2
2022-12-08T19:46:10.315Z,23.4
2022-12-08T19:50:52.591Z,24
2022-12-08T19:55:52.604Z,24
2022-12-08T20:00:52.585Z,24.9
2022-12-08T20:05:52.573Z,24.9
2022-12-08T20:10:52.579Z,26.2
2022-12-08T20:15:52.622Z,26.2
2022-12-08T20:20:52.637Z,26.2
2022-12-08T20:25:52.639Z,26.7
2022-12-08T20:30:52.675Z,27.8
2022-12-08T20:35:58.917Z,31.4
2022-12-08T20:40:52.618Z,143.2
2022-12-08T20:46:10.573Z,143.2
2022-12-08T20:50:52.729Z,143.2
2022-12-08T20:55:52.678Z,143.2
2022-12-08T21:00:52.740Z,28.3
2022-12-08T21:05:52.612Z,24.7
2022-12-08T21:10:52.659Z,24.7
2022-12-08T21:15:52.850Z,24.7
2022-12-08T21:20:52.792Z,24.7
2022-12-08T21:25:52.771Z,143.9
2022-12-08T21:30:52.693Z,251.3
2022-12-08T21:35:52.621Z,251.3
2022-12-08T21:40:52.686Z,251.3
2022-12-08T21:46:11.987Z,143.9
2022-12-08T21:50:52.778Z,43.9
2022-12-08T21:55:52.880Z,43.9
2022-12-08T22:00:52.647Z,43.9
2022-12-08T22:05:52.735Z,43.9
2022-12-08T22:10:52.594Z,43.9
2022-12-08T22:15:52.621Z,43.9
2022-12-08T22:20:52.725Z,43.9
2022-12-08T22:25:52.654Z,36.9
2022-12-08T22:30:52.632Z,29.2
2022-12-08T22:35:52.580Z,25.3
2022-12-08T22:40:52.571Z,22.8
2022-12-08T22:46:14.945Z,21.3
2022-12-08T22:50:53.081Z,21.3
2022-12-08T22:55:52.607Z,20.5
2022-12-08T23:00:52.883Z,19.1
2022-12-08T23:05:52.792Z,20.5
2022-12-08T23:10:52.804Z,19.1
2022-12-08T23:15:52.654Z,19.1
2022-12-08T23:20:52.655Z,19.1
2022-12-08T23:25:52.629Z,19.1
2022-12-08T23:30:52.877Z,19.1
2022-12-08T23:35:52.675Z,19
2022-12-08T23:40:52.718Z,19
2022-12-08T23:46:13.204Z,19
2022-12-08T23:50:52.724Z,19.3
2022-12-08T23:55:52.843Z,19.5
